createdAt,value
2023-03-11T00:03:38.421Z,99978.44
2023-03-11T00:08:40.428Z,99982.50
2023-03-11T00:13:41.990Z,99988.22
2023-03-11T00:18:43.666Z,99994.00
2023-03-11T00:23:46.382Z,99988.38
2023-03-11T00:28:48.050Z,100002.88
2023-03-11T00:33:49.591Z,99999.88
2023-03-11T00:38:51.921Z,100023.59
2023-03-11T00:43:53.985Z,100031.66
2023-03-11T00:48:56.125Z,100035.19
2023-03-11T00:53:57.985Z,100027.91
2023-03-11T00:58:59.767Z,100038.41
2023-03-11T01:04:01.655Z,100043.81
2023-03-11T01:09:05.180Z,100051.69
2023-03-11T01:14:08.014Z,100058.34
2023-03-11T01:19:09.662Z,100062.56
2023-03-11T01:24:11.245Z,100067.63
2023-03-11T01:29:13.124Z,100065.09
2023-03-11T01:34:17.083Z,100075.44
2023-03-11T01:39:18.683Z,100075.59
2023-03-11T01:44:20.250Z,100080.03
2023-03-11T01:49:23.537Z,100072.13
2023-03-11T01:54:33.487Z,100086.25
2023-03-11T01:59:44.960Z,100077.44
2023-03-11T02:04:48.780Z,100082.41
2023-03-11T02:09:51.127Z,100093.28
2023-03-11T02:14:53.925Z,100094.03
2023-03-11T02:19:59.326Z,100095.09
2023-03-11T02:25:23.157Z,100100.44
2023-03-11T02:30:27.217Z,100085.59
2023-03-11T02:35:31.127Z,100092.66
2023-03-11T02:40:39.265Z,100098.38
2023-03-11T02:45:43.819Z,100101.09
2023-03-11T02:50:46.483Z,100110.84
2023-03-11T02:55:49.265Z,100113.47
2023-03-11T03:00:51.233Z,100122.06
2023-03-11T03:05:54.156Z,100118.84
2023-03-11T03:10:56.238Z,100112.31
2023-03-11T03:15:59.546Z,100117.53
2023-03-11T03:21:02.200Z,100114.16
2023-03-11T03:26:05.710Z,100120.06
2023-03-11T03:31:11.987Z,100120.63
2023-03-11T03:36:16.348Z,100124.59
2023-03-11T03:41:23.604Z,100134.72
2023-03-11T03:46:26.540Z,100148.44
2023-03-11T03:51:32.063Z,100146.28
2023-03-11T03:56:40.965Z,100141.28
2023-03-11T04:01:43.711Z,100145.75
2023-03-11T04:06:45.671Z,100159.66
2023-03-11T04:11:48.190Z,100167.13
2023-03-11T04:16:53.517Z,100179.22
2023-03-11T04:21:56.173Z,100181.25
2023-03-11T04:27:00.961Z,100184.50
2023-03-11T04:32:07.665Z,100192.25
2023-03-11T04:37:11.256Z,100198.50
2023-03-11T04:42:13.563Z,100190.22
2023-03-11T04:47:17.746Z,100199.19
2023-03-11T04:52:19.837Z,100207.34
2023-03-11T04:57:22.586Z,100202.03
2023-03-11T05:02:25.376Z,100207.72
2023-03-11T05:07:32.493Z,100202.69
2023-03-11T05:12:35.458Z,100203.31
2023-03-11T05:17:38.289Z,100211.69
2023-03-11T05:22:41.382Z,100229.00
2023-03-11T05:27:46.173Z,100234.31
2023-03-11T05:32:49.620Z,100230.09
2023-03-11T05:37:53.118Z,100241.91
2023-03-11T05:42:54.718Z,100253.22
2023-03-11T05:47:57.091Z,100249.31
2023-03-11T05:52:59.557Z,100252.56
2023-03-11T05:58:04.828Z,100266.03
2023-03-11T06:03:07.413Z,100264.13
2023-03-11T06:08:12.493Z,100269.31
2023-03-11T06:13:15.890Z,100265.47
2023-03-11T06:18:23.497Z,100258.69
2023-03-11T06:23:26.746Z,100263.94
2023-03-11T06:28:30.476Z,100284.66
2023-03-11T06:33:32.666Z,100298.31
2023-03-11T06:38:37.429Z,100305.66
2023-03-11T06:43:40.951Z,100313.34
2023-03-11T06:48:43.595Z,100307.56
2023-03-11T06:53:49.152Z,100319.81
2023-03-11T06:58:54.509Z,100330.66
2023-03-11T07:03:57.925Z,100334.75
2023-03-11T07:09:01.688Z,100348.44
2023-03-11T07:14:06.218Z,100369.25
2023-03-11T07:19:12.542Z,100377.00
2023-03-11T07:24:15.262Z,100378.31
2023-03-11T07:29:17.659Z,100391.50
2023-03-11T07:34:20.203Z,100400.31
2023-03-11T07:39:21.794Z,100409.56
2023-03-11T07:44:23.734Z,100420.66
2023-03-11T07:49:25.453Z,100426.63
2023-03-11T07:54:28.229Z,100443.09
2023-03-11T07:59:31.232Z,100446.84
2023-03-11T08:04:33.516Z,100459.34
2023-03-11T08:09:36.517Z,100468.94
2023-03-11T08:14:38.916Z,100464.19
2023-03-11T08:19:41.379Z,100460.81
2023-03-11T08:24:44.368Z,100467.53
2023-03-11T08:29:46.866Z,100463.56
2023-03-11T08:34:49.008Z,100467.50
2023-03-11T08:39:51.280Z,100464.41
2023-03-11T08:44:53.040Z,100469.88
2023-03-11T08:49:54.723Z,100460.31
2023-03-11T08:54:56.890Z,100467.34
2023-03-11T08:59:58.552Z,100470.81
2023-03-11T09:05:00.658Z,100478.97
2023-03-11T09:10:04.197Z,100478.75
2023-03-11T09:15:07.297Z,100478.03
2023-03-11T09:20:13.759Z,100489.97
2023-03-11T09:25:15.878Z,100480.69
2023-03-11T09:30:18.278Z,100477.53
2023-03-11T09:35:19.854Z,100467.63
2023-03-11T09:40:24.831Z,100472.69
2023-03-11T09:45:35.291Z,100462.59
2023-03-11T09:50:53.737Z,100477.50
2023-03-11T09:55:57.512Z,100492.53
2023-03-11T10:00:59.406Z,100501.56
2023-03-11T10:06:07.970Z,100509.94
2023-03-11T10:11:32.296Z,100507.91
2023-03-11T10:16:37.034Z,100519.94
2023-03-11T10:21:57.920Z,100527.34
2023-03-11T10:27:03.557Z,100514.56
2023-03-11T10:32:36.478Z,100531.34
2023-03-11T10:37:49.823Z,100539.56
2023-03-11T10:42:55.789Z,100538.97
2023-03-11T10:48:25.767Z,100562.38
2023-03-11T10:53:27.538Z,100558.56
2023-03-11T10:58:31.072Z,100535.81
2023-03-11T11:03:34.519Z,100532.97
2023-03-11T11:08:36.458Z,100524.19
2023-03-11T11:13:38.053Z,100524.81
2023-03-11T11:18:49.169Z,100530.47
2023-03-11T11:24:01.283Z,100520.31
2023-03-11T11:29:12.249Z,100529.69
2023-03-11T11:34:33.921Z,100521.97
2023-03-11T11:39:49.546Z,100526.94
2023-03-11T11:45:37.337Z,100537.97
2023-03-11T11:50:51.417Z,100534.75
2023-03-11T11:55:55.006Z,100538.38
2023-03-11T12:01:19.681Z,100533.94
2023-03-11T12:06:40.018Z,100538.75
2023-03-11T12:11:45.125Z,100531.28
2023-03-11T12:16:46.571Z,100538.22
2023-03-11T12:22:09.465Z,100534.38
2023-03-11T12:27:25.495Z,100533.09
2023-03-11T12:32:41.949Z,100538.53
2023-03-11T12:37:44.609Z,100534.69
2023-03-11T12:42:46.248Z,100526.63
2023-03-11T12:48:26.192Z,100526.13
2023-03-11T12:53:48.693Z,100521.09
2023-03-11T12:59:27.205Z,100517.06
2023-03-11T13:04:47.924Z,100517.97
2023-03-11T13:10:07.484Z,100528.41
2023-03-11T13:15:18.392Z,100523.38
2023-03-11T13:20:39.344Z,100519.66
2023-03-11T13:25:43.696Z,100515.59
2023-03-11T13:31:10.757Z,100519.22
2023-03-11T13:36:49.973Z,100518.03
2023-03-11T13:41:51.854Z,100520.78
2023-03-11T13:47:04.462Z,100525.97
2023-03-11T13:52:12.877Z,100520.09
2023-03-11T13:57:22.011Z,100521.28
2023-03-11T14:02:26.817Z,100517.16
2023-03-11T14:07:31.733Z,100511.38
2023-03-11T14:12:34.371Z,100526.03
2023-03-11T14:17:36.248Z,100513.66
2023-03-11T14:22:38.444Z,100519.88
2023-03-11T14:27:45.345Z,100522.00
2023-03-11T14:33:06.948Z,100527.81
2023-03-11T14:38:26.896Z,100531.34
2023-03-11T14:43:39.732Z,100544.88
2023-03-11T14:48:43.306Z,100541.13
2023-03-11T14:54:17.713Z,100539.88
2023-03-11T14:59:25.632Z,100546.84
2023-03-11T15:04:35.879Z,100540.00
2023-03-11T15:09:40.879Z,100542.72
2023-03-11T15:14:50.485Z,100537.59
2023-03-11T15:19:52.119Z,100545.13
2023-03-11T15:24:57.680Z,100540.56
2023-03-11T15:30:01.051Z,100548.03
2023-03-11T15:35:14.962Z,100534.34
2023-03-11T15:40:43.964Z,100541.66
2023-03-11T15:45:47.030Z,100542.22
2023-03-11T15:50:54.870Z,100545.03
2023-03-11T15:56:10.254Z,100547.84
2023-03-11T16:01:11.844Z,100552.88
2023-03-11T16:06:13.358Z,100550.13
2023-03-11T16:11:15.870Z,100546.47
2023-03-11T16:16:18.104Z,100549.41
2023-03-11T16:21:23.116Z,100548.88
2023-03-11T16:26:24.716Z,100543.91
2023-03-11T16:31:26.394Z,100550.22
2023-03-11T16:36:27.984Z,100548.09
2023-03-11T16:41:29.531Z,100547.97
2023-03-11T16:46:31.054Z,100562.41
2023-03-11T16:51:33.239Z,100560.81
2023-03-11T16:56:35.178Z,100554.94
2023-03-11T17:01:36.871Z,100568.03
2023-03-11T17:06:38.392Z,100560.53
2023-03-11T17:11:40.128Z,100557.34
2023-03-11T17:16:41.789Z,100552.66
2023-03-11T17:21:43.370Z,100567.63
2023-03-11T17:26:44.882Z,100571.19
2023-03-11T17:31:46.550Z,100576.47
2023-03-11T17:36:48.611Z,100575.19
2023-03-11T17:41:50.849Z,100573.38
2023-03-11T17:46:53.896Z,100578.56
2023-03-11T17:51:56.665Z,100585.25
2023-03-11T17:56:58.521Z,100590.31
2023-03-11T18:02:00.440Z,100587.34
2023-03-11T18:07:02.037Z,100589.13
2023-03-11T18:12:04.001Z,100586.97
2023-03-11T18:17:05.957Z,100584.38
2023-03-11T18:22:08.149Z,100584.25
2023-03-11T18:27:09.660Z,100596.63
2023-03-11T18:32:11.249Z,100587.50
2023-03-11T18:37:12.938Z,100593.47
2023-03-11T18:42:15.328Z,100593.97
2023-03-11T18:47:17.310Z,100591.13
2023-03-11T18:52:19.148Z,100601.50
2023-03-11T18:57:21.009Z,100601.16
2023-03-11T19:02:22.526Z,100577.00
2023-03-11T19:07:24.837Z,100590.50
2023-03-11T19:12:26.386Z,100596.34
2023-03-11T19:17:28.008Z,100609.75
2023-03-11T19:22:29.541Z,100609.03
2023-03-11T19:27:31.811Z,100616.63
2023-03-11T19:32:33.787Z,100619.28
2023-03-11T19:37:36.006Z,100623.94
2023-03-11T19:42:37.516Z,100623.94
2023-03-11T19:47:39.092Z,100631.09
2023-03-11T19:52:41.179Z,100633.06
2023-03-11T19:57:43.460Z,100636.28
2023-03-11T20:02:45.496Z,100643.47
2023-03-11T20:07:47.259Z,100636.94
2023-03-11T20:13:01.482Z,100642.59
2023-03-11T20:18:05.386Z,100649.63
2023-03-11T20:23:07.729Z,100645.22
2023-03-11T20:28:10.406Z,100647.16
2023-03-11T20:33:12.144Z,100638.84
2023-03-11T20:38:14.125Z,100641.31
2023-03-11T20:43:16.151Z,100651.06
2023-03-11T20:48:18.102Z,100650.59
2023-03-11T20:53:20.345Z,100646.66
2023-03-11T20:58:22.181Z,100644.94
2023-03-11T21:03:23.948Z,100647.66
2023-03-11T21:08:25.911Z,100650.25
2023-03-11T21:13:28.191Z,100650.00
2023-03-11T21:18:32.133Z,100648.25
2023-03-11T21:23:34.989Z,100641.59
2023-03-11T21:28:37.199Z,100646.22
2023-03-11T21:33:40.955Z,100644.84
2023-03-11T21:38:43.396Z,100642.72
2023-03-11T21:43:46.389Z,100641.03
2023-03-11T21:48:49.208Z,100629.19
2023-03-11T21:53:50.887Z,100637.94
2023-03-11T21:58:52.554Z,100638.13
2023-03-11T22:03:54.523Z,100636.31
2023-03-11T22:08:56.859Z,100629.38
2023-03-11T22:13:59.253Z,100632.91
2023-03-11T22:19:01.177Z,100632.22
2023-03-11T22:24:02.878Z,100635.06
2023-03-11T22:29:07.808Z,100626.59
2023-03-11T22:34:10.344Z,100625.81
2023-03-11T22:39:11.926Z,100624.97
2023-03-11T22:44:13.661Z,100635.88
2023-03-11T22:49:15.455Z,100631.91
2023-03-11T22:54:17.522Z,100636.13
2023-03-11T22:59:19.298Z,100645.97
2023-03-11T23:04:21.035Z,100640.03
2023-03-11T23:09:22.749Z,100640.38
2023-03-11T23:14:37.863Z,100645.84
2023-03-11T23:19:45.563Z,100638.28
2023-03-11T23:24:47.512Z,100634.63
2023-03-11T23:29:49.751Z,100639.53
2023-03-11T23:34:52.119Z,100634.59
2023-03-11T23:39:54.165Z,100631.84
2023-03-11T23:44:56.251Z,100628.84
2023-03-11T23:49:57.959Z,100632.13
2023-03-11T23:55:00.917Z,100625.19
